sensor_id;sensor_type;location;lat;lon;timestamp;P1;durP1;ratioP1;P2;durP2;ratioP2
76155;SDS011;64906;51.290;7.348;2023-12-20T00:02:05;6.70;;;4.33;;
76155;SDS011;64906;51.290;7.348;2023-12-20T00:04:30;6.07;;;3.83;;
76155;SDS011;64906;51.290;7.348;2023-12-20T00:06:55;6.23;;;3.87;;
76155;SDS011;64906;51.290;7.348;2023-12-20T00:09:21;7.83;;;4.23;;
76155;SDS011;64906;51.290;7.348;2023-12-20T00:11:46;6.70;;;4.20;;
76155;SDS011;64906;51.290;7.348;2023-12-20T00:14:11;6.83;;;3.90;;
76155;SDS011;64906;51.290;7.348;2023-12-20T00:16:36;6.93;;;4.40;;
76155;SDS011;64906;51.290;7.348;2023-12-20T00:19:02;6.90;;;4.23;;
76155;SDS011;64906;51.290;7.348;2023-12-20T00:21:27;5.90;;;3.60;;
76155;SDS011;64906;51.290;7.348;2023-12-20T00:23:52;7.03;;;4.00;;
76155;SDS011;64906;51.290;7.348;2023-12-20T00:26:17;6.77;;;3.83;;
76155;SDS011;64906;51.290;7.348;2023-12-20T00:28:43;6.90;;;3.77;;
76155;SDS011;64906;51.290;7.348;2023-12-20T00:31:08;5.57;;;3.60;;
76155;SDS011;64906;51.290;7.348;2023-12-20T00:33:33;6.00;;;3.50;;
76155;SDS011;64906;51.290;7.348;2023-12-20T00:35:59;6.30;;;3.83;;
76155;SDS011;64906;51.290;7.348;2023-12-20T00:38:24;5.97;;;3.60;;
76155;SDS011;64906;51.290;7.348;2023-12-20T00:40:49;5.60;;;3.27;;
76155;SDS011;64906;51.290;7.348;2023-12-20T00:43:15;6.50;;;3.97;;
76155;SDS011;64906;51.290;7.348;2023-12-20T00:45:40;6.10;;;3.63;;
76155;SDS011;64906;51.290;7.348;2023-12-20T00:48:05;5.90;;;3.50;;
76155;SDS011;64906;51.290;7.348;2023-12-20T00:50:31;5.88;;;3.67;;
76155;SDS011;64906;51.290;7.348;2023-12-20T00:52:56;5.90;;;3.37;;
76155;SDS011;64906;51.290;7.348;2023-12-20T00:55:22;6.57;;;3.55;;
76155;SDS011;64906;51.290;7.348;2023-12-20T00:57:47;6.17;;;3.70;;
76155;SDS011;64906;51.290;7.348;2023-12-20T01:00:12;5.80;;;3.43;;
76155;SDS011;64906;51.290;7.348;2023-12-20T01:02:38;5.88;;;3.33;;
76155;SDS011;64906;51.290;7.348;2023-12-20T01:05:04;6.10;;;3.70;;
76155;SDS011;64906;51.290;7.348;2023-12-20T01:07:29;5.95;;;3.55;;
76155;SDS011;64906;51.290;7.348;2023-12-20T01:09:54;5.60;;;3.23;;
76155;SDS011;64906;51.290;7.348;2023-12-20T01:12:20;5.83;;;3.50;;
76155;SDS011;64906;51.290;7.348;2023-12-20T01:14:45;6.35;;;3.35;;
76155;SDS011;64906;51.290;7.348;2023-12-20T01:17:12;5.35;;;3.17;;
76155;SDS011;64906;51.290;7.348;2023-12-20T01:19:37;5.93;;;3.20;;
76155;SDS011;64906;51.290;7.348;2023-12-20T01:22:02;6.90;;;3.70;;
76155;SDS011;64906;51.290;7.348;2023-12-20T01:24:28;5.88;;;3.35;;
76155;SDS011;64906;51.290;7.348;2023-12-20T01:26:53;5.67;;;3.20;;
76155;SDS011;64906;51.290;7.348;2023-12-20T01:29:18;5.30;;;3.10;;
76155;SDS011;64906;51.290;7.348;2023-12-20T01:31:44;5.68;;;3.05;;
76155;SDS011;64906;51.290;7.348;2023-12-20T01:34:09;5.85;;;3.30;;
76155;SDS011;64906;51.290;7.348;2023-12-20T01:36:35;5.70;;;3.30;;
76155;SDS011;64906;51.290;7.348;2023-12-20T01:39:00;6.43;;;3.57;;
76155;SDS011;64906;51.290;7.348;2023-12-20T01:41:25;6.70;;;3.70;;
76155;SDS011;64906;51.290;7.348;2023-12-20T01:43:51;5.37;;;3.10;;
76155;SDS011;64906;51.290;7.348;2023-12-20T01:46:18;5.90;;;3.15;;
76155;SDS011;64906;51.290;7.348;2023-12-20T01:48:44;5.70;;;3.17;;
76155;SDS011;64906;51.290;7.348;2023-12-20T01:51:10;5.20;;;3.20;;
76155;SDS011;64906;51.290;7.348;2023-12-20T01:53:35;6.13;;;3.45;;
76155;SDS011;64906;51.290;7.348;2023-12-20T01:56:01;5.60;;;3.28;;
76155;SDS011;64906;51.290;7.348;2023-12-20T01:58:27;6.13;;;3.25;;
76155;SDS011;64906;51.290;7.348;2023-12-20T02:00:52;5.95;;;3.22;;
76155;SDS011;64906;51.290;7.348;2023-12-20T02:03:19;5.65;;;3.05;;
76155;SDS011;64906;51.290;7.348;2023-12-20T02:05:45;5.30;;;2.95;;
76155;SDS011;64906;51.290;7.348;2023-12-20T02:08:11;4.95;;;2.80;;
76155;SDS011;64906;51.290;7.348;2023-12-20T02:10:36;6.23;;;2.93;;
76155;SDS011;64906;51.290;7.348;2023-12-20T02:13:02;5.63;;;3.08;;
76155;SDS011;64906;51.290;7.348;2023-12-20T02:15:28;4.97;;;2.90;;
76155;SDS011;64906;51.290;7.348;2023-12-20T02:17:53;5.70;;;2.90;;
76155;SDS011;64906;51.290;7.348;2023-12-20T02:20:19;4.95;;;2.90;;
76155;SDS011;64906;51.290;7.348;2023-12-20T02:22:44;5.28;;;2.70;;
76155;SDS011;64906;51.290;7.348;2023-12-20T02:25:10;5.57;;;3.00;;
76155;SDS011;64906;51.290;7.348;2023-12-20T02:27:35;4.95;;;2.78;;
76155;SDS011;64906;51.290;7.348;2023-12-20T02:30:01;4.70;;;2.70;;
76155;SDS011;64906;51.290;7.348;2023-12-20T02:32:26;5.05;;;2.75;;
76155;SDS011;64906;51.290;7.348;2023-12-20T02:34:52;5.10;;;2.75;;
76155;SDS011;64906;51.290;7.348;2023-12-20T02:37:18;4.90;;;2.90;;
76155;SDS011;64906;51.290;7.348;2023-12-20T02:39:43;5.00;;;2.77;;
76155;SDS011;64906;51.290;7.348;2023-12-20T02:42:09;4.87;;;2.63;;
76155;SDS011;64906;51.290;7.348;2023-12-20T02:44:34;4.80;;;2.80;;
76155;SDS011;64906;51.290;7.348;2023-12-20T02:46:59;5.27;;;2.80;;
76155;SDS011;64906;51.290;7.348;2023-12-20T02:49:24;5.60;;;2.90;;
76155;SDS011;64906;51.290;7.348;2023-12-20T02:51:50;5.07;;;2.63;;
76155;SDS011;64906;51.290;7.348;2023-12-20T02:54:15;5.50;;;2.90;;
76155;SDS011;64906;51.290;7.348;2023-12-20T02:56:40;4.40;;;2.50;;
76155;SDS011;64906;51.290;7.348;2023-12-20T02:59:06;5.25;;;2.80;;
76155;SDS011;64906;51.290;7.348;2023-12-20T03:01:33;4.78;;;2.33;;
76155;SDS011;64906;51.290;7.348;2023-12-20T03:03:59;4.55;;;2.58;;
76155;SDS011;64906;51.290;7.348;2023-12-20T03:06:24;4.60;;;2.50;;
76155;SDS011;64906;51.290;7.348;2023-12-20T03:08:49;4.90;;;2.80;;
76155;SDS011;64906;51.290;7.348;2023-12-20T03:11:15;5.10;;;2.80;;
76155;SDS011;64906;51.290;7.348;2023-12-20T03:13:40;4.57;;;2.50;;
76155;SDS011;64906;51.290;7.348;2023-12-20T03:16:08;5.20;;;2.70;;
76155;SDS011;64906;51.290;7.348;2023-12-20T03:18:34;5.05;;;2.55;;
76155;SDS011;64906;51.290;7.348;2023-12-20T03:20:59;4.97;;;2.70;;
76155;SDS011;64906;51.290;7.348;2023-12-20T03:23:25;4.27;;;2.27;;
76155;SDS011;64906;51.290;7.348;2023-12-20T03:25:51;4.53;;;2.42;;
76155;SDS011;64906;51.290;7.348;2023-12-20T03:28:16;4.67;;;2.23;;
76155;SDS011;64906;51.290;7.348;2023-12-20T03:30:42;5.87;;;2.67;;
76155;SDS011;64906;51.290;7.348;2023-12-20T03:33:07;4.72;;;2.45;;
76155;SDS011;64906;51.290;7.348;2023-12-20T03:35:32;4.10;;;2.27;;
76155;SDS011;64906;51.290;7.348;2023-12-20T03:37:57;4.37;;;2.17;;
76155;SDS011;64906;51.290;7.348;2023-12-20T03:40:25;4.53;;;2.50;;
76155;SDS011;64906;51.290;7.348;2023-12-20T03:42:50;5.47;;;2.67;;
76155;SDS011;64906;51.290;7.348;2023-12-20T03:45:15;5.97;;;2.77;;
76155;SDS011;64906;51.290;7.348;2023-12-20T03:47:40;4.43;;;2.40;;
76155;SDS011;64906;51.290;7.348;2023-12-20T03:50:06;4.60;;;2.40;;
76155;SDS011;64906;51.290;7.348;2023-12-20T03:52:31;4.82;;;2.38;;
76155;SDS011;64906;51.290;7.348;2023-12-20T03:54:57;3.70;;;1.92;;
76155;SDS011;64906;51.290;7.348;2023-12-20T03:57:22;5.00;;;2.50;;
76155;SDS011;64906;51.290;7.348;2023-12-20T03:59:47;5.07;;;2.60;;
76155;SDS011;64906;51.290;7.348;2023-12-20T04:02:13;5.30;;;2.43;;
76155;SDS011;64906;51.290;7.348;2023-12-20T04:04:38;4.70;;;2.50;;
76155;SDS011;64906;51.290;7.348;2023-12-20T04:07:03;4.47;;;2.30;;
76155;SDS011;64906;51.290;7.348;2023-12-20T04:09:28;4.37;;;2.00;;
76155;SDS011;64906;51.290;7.348;2023-12-20T04:11:54;4.60;;;2.17;;
76155;SDS011;64906;51.290;7.348;2023-12-20T04:14:19;5.27;;;2.30;;
76155;SDS011;64906;51.290;7.348;2023-12-20T04:16:44;4.97;;;2.40;;
76155;SDS011;64906;51.290;7.348;2023-12-20T04:19:09;4.90;;;2.10;;
76155;SDS011;64906;51.290;7.348;2023-12-20T04:21:35;5.07;;;2.43;;
76155;SDS011;64906;51.290;7.348;2023-12-20T04:24:00;4.30;;;1.97;;
76155;SDS011;64906;51.290;7.348;2023-12-20T04:26:25;4.17;;;2.17;;
76155;SDS011;64906;51.290;7.348;2023-12-20T04:28:50;4.47;;;2.20;;
76155;SDS011;64906;51.290;7.348;2023-12-20T04:31:16;5.63;;;2.10;;
76155;SDS011;64906;51.290;7.348;2023-12-20T04:33:41;4.50;;;2.07;;
76155;SDS011;64906;51.290;7.348;2023-12-20T04:36:06;3.80;;;1.97;;
76155;SDS011;64906;51.290;7.348;2023-12-20T04:38:31;4.30;;;2.10;;
76155;SDS011;64906;51.290;7.348;2023-12-20T04:40:57;4.13;;;1.73;;
76155;SDS011;64906;51.290;7.348;2023-12-20T04:43:22;4.57;;;2.13;;
76155;SDS011;64906;51.290;7.348;2023-12-20T04:45:47;4.57;;;1.87;;
76155;SDS011;64906;51.290;7.348;2023-12-20T04:48:13;4.60;;;2.07;;
76155;SDS011;64906;51.290;7.348;2023-12-20T04:50:38;4.37;;;2.10;;
76155;SDS011;64906;51.290;7.348;2023-12-20T04:53:03;4.20;;;2.13;;
76155;SDS011;64906;51.290;7.348;2023-12-20T04:55:28;4.10;;;2.20;;
76155;SDS011;64906;51.290;7.348;2023-12-20T04:57:54;3.95;;;1.92;;
76155;SDS011;64906;51.290;7.348;2023-12-20T05:00:19;4.50;;;2.20;;
76155;SDS011;64906;51.290;7.348;2023-12-20T05:02:45;5.03;;;2.23;;
76155;SDS011;64906;51.290;7.348;2023-12-20T05:05:10;4.83;;;2.00;;
76155;SDS011;64906;51.290;7.348;2023-12-20T05:07:36;4.28;;;2.13;;
76155;SDS011;64906;51.290;7.348;2023-12-20T05:10:01;4.38;;;2.20;;
76155;SDS011;64906;51.290;7.348;2023-12-20T05:12:29;5.03;;;2.10;;
76155;SDS011;64906;51.290;7.348;2023-12-20T05:14:54;4.35;;;2.00;;
76155;SDS011;64906;51.290;7.348;2023-12-20T05:17:20;4.03;;;1.87;;
76155;SDS011;64906;51.290;7.348;2023-12-20T05:19:45;4.10;;;2.08;;
76155;SDS011;64906;51.290;7.348;2023-12-20T05:22:11;4.15;;;2.03;;
76155;SDS011;64906;51.290;7.348;2023-12-20T05:24:36;3.60;;;1.70;;
76155;SDS011;64906;51.290;7.348;2023-12-20T05:27:01;5.00;;;2.30;;
76155;SDS011;64906;51.290;7.348;2023-12-20T05:29:26;4.07;;;2.00;;
76155;SDS011;64906;51.290;7.348;2023-12-20T05:31:52;6.00;;;2.30;;
76155;SDS011;64906;51.290;7.348;2023-12-20T05:34:17;4.87;;;2.10;;
76155;SDS011;64906;51.290;7.348;2023-12-20T05:36:42;3.80;;;1.83;;
76155;SDS011;64906;51.290;7.348;2023-12-20T05:39:08;6.93;;;2.10;;
76155;SDS011;64906;51.290;7.348;2023-12-20T05:41:33;4.10;;;1.80;;
76155;SDS011;64906;51.290;7.348;2023-12-20T05:43:58;4.00;;;1.70;;
76155;SDS011;64906;51.290;7.348;2023-12-20T05:46:24;4.57;;;2.10;;
76155;SDS011;64906;51.290;7.348;2023-12-20T05:48:50;5.82;;;2.40;;
76155;SDS011;64906;51.290;7.348;2023-12-20T05:51:16;3.70;;;1.80;;
76155;SDS011;64906;51.290;7.348;2023-12-20T05:53:42;4.03;;;1.83;;
76155;SDS011;64906;51.290;7.348;2023-12-20T05:56:07;4.17;;;1.80;;
76155;SDS011;64906;51.290;7.348;2023-12-20T05:58:32;5.13;;;2.03;;
76155;SDS011;64906;51.290;7.348;2023-12-20T06:00:58;3.80;;;1.63;;
76155;SDS011;64906;51.290;7.348;2023-12-20T06:03:23;4.23;;;2.10;;
76155;SDS011;64906;51.290;7.348;2023-12-20T06:05:49;4.67;;;1.83;;
76155;SDS011;64906;51.290;7.348;2023-12-20T06:08:14;5.13;;;1.93;;
76155;SDS011;64906;51.290;7.348;2023-12-20T06:10:39;5.57;;;1.80;;
76155;SDS011;64906;51.290;7.348;2023-12-20T06:13:05;5.55;;;1.73;;
76155;SDS011;64906;51.290;7.348;2023-12-20T06:15:31;4.40;;;1.80;;
76155;SDS011;64906;51.290;7.348;2023-12-20T06:17:57;4.63;;;1.77;;
76155;SDS011;64906;51.290;7.348;2023-12-20T06:20:22;3.73;;;1.70;;
76155;SDS011;64906;51.290;7.348;2023-12-20T06:22:47;4.10;;;1.93;;
76155;SDS011;64906;51.290;7.348;2023-12-20T06:25:13;3.83;;;1.77;;
76155;SDS011;64906;51.290;7.348;2023-12-20T06:27:38;4.37;;;1.83;;
76155;SDS011;64906;51.290;7.348;2023-12-20T06:30:03;4.67;;;1.80;;
76155;SDS011;64906;51.290;7.348;2023-12-20T06:32:29;3.65;;;1.50;;
76155;SDS011;64906;51.290;7.348;2023-12-20T06:34:54;4.27;;;1.73;;
76155;SDS011;64906;51.290;7.348;2023-12-20T06:37:20;3.78;;;1.70;;
76155;SDS011;64906;51.290;7.348;2023-12-20T06:39:45;3.77;;;1.70;;
76155;SDS011;64906;51.290;7.348;2023-12-20T06:42:11;4.45;;;1.80;;
76155;SDS011;64906;51.290;7.348;2023-12-20T06:44:36;5.25;;;1.80;;
76155;SDS011;64906;51.290;7.348;2023-12-20T06:47:02;4.15;;;1.80;;
76155;SDS011;64906;51.290;7.348;2023-12-20T06:49:28;4.57;;;1.90;;
76155;SDS011;64906;51.290;7.348;2023-12-20T06:51:53;4.17;;;1.83;;
76155;SDS011;64906;51.290;7.348;2023-12-20T06:54:18;4.50;;;1.48;;
76155;SDS011;64906;51.290;7.348;2023-12-20T06:56:43;4.70;;;1.67;;
76155;SDS011;64906;51.290;7.348;2023-12-20T06:59:09;4.23;;;1.77;;
76155;SDS011;64906;51.290;7.348;2023-12-20T07:01:34;3.90;;;1.80;;
76155;SDS011;64906;51.290;7.348;2023-12-20T07:03:59;4.50;;;1.87;;
76155;SDS011;64906;51.290;7.348;2023-12-20T07:06:25;4.30;;;1.63;;
76155;SDS011;64906;51.290;7.348;2023-12-20T07:08:51;3.80;;;1.75;;
76155;SDS011;64906;51.290;7.348;2023-12-20T07:11:17;4.15;;;1.63;;
76155;SDS011;64906;51.290;7.348;2023-12-20T07:13:42;4.18;;;1.65;;
76155;SDS011;64906;51.290;7.348;2023-12-20T07:16:08;4.43;;;1.50;;
76155;SDS011;64906;51.290;7.348;2023-12-20T07:18:33;3.57;;;1.60;;
76155;SDS011;64906;51.290;7.348;2023-12-20T07:20:58;4.10;;;1.73;;
76155;SDS011;64906;51.290;7.348;2023-12-20T07:23:24;4.20;;;1.50;;
76155;SDS011;64906;51.290;7.348;2023-12-20T07:25:50;3.50;;;1.60;;
76155;SDS011;64906;51.290;7.348;2023-12-20T07:28:16;4.37;;;1.60;;
76155;SDS011;64906;51.290;7.348;2023-12-20T07:30:41;5.00;;;1.70;;
76155;SDS011;64906;51.290;7.348;2023-12-20T07:33:06;3.67;;;1.50;;
76155;SDS011;64906;51.290;7.348;2023-12-20T07:35:33;4.07;;;1.58;;
76155;SDS011;64906;51.290;7.348;2023-12-20T07:37:59;3.42;;;1.58;;
76155;SDS011;64906;51.290;7.348;2023-12-20T07:40:24;3.10;;;1.30;;
76155;SDS011;64906;51.290;7.348;2023-12-20T07:42:49;4.60;;;1.70;;
76155;SDS011;64906;51.290;7.348;2023-12-20T07:45:15;5.00;;;1.63;;
76155;SDS011;64906;51.290;7.348;2023-12-20T07:47:40;4.90;;;1.60;;
76155;SDS011;64906;51.290;7.348;2023-12-20T07:50:06;3.65;;;1.65;;
76155;SDS011;64906;51.290;7.348;2023-12-20T07:52:31;3.42;;;1.60;;
76155;SDS011;64906;51.290;7.348;2023-12-20T07:54:56;4.40;;;1.70;;
76155;SDS011;64906;51.290;7.348;2023-12-20T07:57:22;4.30;;;1.67;;
76155;SDS011;64906;51.290;7.348;2023-12-20T07:59:48;3.38;;;1.58;;
76155;SDS011;64906;51.290;7.348;2023-12-20T08:02:13;4.38;;;1.60;;
76155;SDS011;64906;51.290;7.348;2023-12-20T08:04:39;3.60;;;1.50;;
76155;SDS011;64906;51.290;7.348;2023-12-20T08:07:05;4.80;;;1.70;;
76155;SDS011;64906;51.290;7.348;2023-12-20T08:09:31;4.40;;;1.63;;
76155;SDS011;64906;51.290;7.348;2023-12-20T08:11:57;3.83;;;1.55;;
76155;SDS011;64906;51.290;7.348;2023-12-20T08:14:24;4.93;;;1.67;;
76155;SDS011;64906;51.290;7.348;2023-12-20T08:16:49;4.20;;;1.80;;
76155;SDS011;64906;51.290;7.348;2023-12-20T08:19:15;4.10;;;1.67;;
76155;SDS011;64906;51.290;7.348;2023-12-20T08:21:40;5.40;;;1.60;;
76155;SDS011;64906;51.290;7.348;2023-12-20T08:24:05;4.23;;;1.60;;
76155;SDS011;64906;51.290;7.348;2023-12-20T08:26:32;4.57;;;1.80;;
76155;SDS011;64906;51.290;7.348;2023-12-20T08:28:58;4.20;;;1.80;;
76155;SDS011;64906;51.290;7.348;2023-12-20T08:31:23;4.60;;;1.83;;
76155;SDS011;64906;51.290;7.348;2023-12-20T08:33:48;4.27;;;1.83;;
76155;SDS011;64906;51.290;7.348;2023-12-20T08:36:14;3.85;;;1.67;;
76155;SDS011;64906;51.290;7.348;2023-12-20T08:38:39;4.00;;;1.88;;
76155;SDS011;64906;51.290;7.348;2023-12-20T08:41:05;4.80;;;1.60;;
76155;SDS011;64906;51.290;7.348;2023-12-20T08:43:31;4.03;;;1.77;;
76155;SDS011;64906;51.290;7.348;2023-12-20T08:45:57;4.68;;;2.10;;
76155;SDS011;64906;51.290;7.348;2023-12-20T08:48:22;4.13;;;1.80;;
76155;SDS011;64906;51.290;7.348;2023-12-20T08:50:47;5.18;;;2.17;;
76155;SDS011;64906;51.290;7.348;2023-12-20T08:53:15;5.40;;;2.22;;
76155;SDS011;64906;51.290;7.348;2023-12-20T08:55:41;4.68;;;2.22;;
76155;SDS011;64906;51.290;7.348;2023-12-20T08:58:06;5.10;;;2.15;;
76155;SDS011;64906;51.290;7.348;2023-12-20T09:00:33;5.60;;;2.35;;
76155;SDS011;64906;51.290;7.348;2023-12-20T09:02:58;5.85;;;2.22;;
76155;SDS011;64906;51.290;7.348;2023-12-20T09:05:24;4.68;;;2.03;;
76155;SDS011;64906;51.290;7.348;2023-12-20T09:07:50;4.57;;;2.10;;
76155;SDS011;64906;51.290;7.348;2023-12-20T09:10:15;5.88;;;2.33;;
76155;SDS011;64906;51.290;7.348;2023-12-20T09:12:41;5.55;;;2.40;;
76155;SDS011;64906;51.290;7.348;2023-12-20T09:15:07;5.15;;;2.33;;
76155;SDS011;64906;51.290;7.348;2023-12-20T09:17:33;5.50;;;2.42;;
76155;SDS011;64906;51.290;7.348;2023-12-20T09:19:58;5.78;;;2.70;;
76155;SDS011;64906;51.290;7.348;2023-12-20T09:22:25;5.75;;;2.72;;
76155;SDS011;64906;51.290;7.348;2023-12-20T09:24:50;6.30;;;2.40;;
76155;SDS011;64906;51.290;7.348;2023-12-20T09:27:16;5.57;;;2.75;;
76155;SDS011;64906;51.290;7.348;2023-12-20T09:29:41;6.10;;;2.83;;
76155;SDS011;64906;51.290;7.348;2023-12-20T09:32:06;7.27;;;3.53;;
76155;SDS011;64906;51.290;7.348;2023-12-20T09:34:32;11.23;;;6.27;;
76155;SDS011;64906;51.290;7.348;2023-12-20T09:36:57;10.87;;;5.83;;
76155;SDS011;64906;51.290;7.348;2023-12-20T09:39:22;9.77;;;5.60;;
76155;SDS011;64906;51.290;7.348;2023-12-20T09:41:55;12.52;;;6.70;;
76155;SDS011;64906;51.290;7.348;2023-12-20T09:44:25;13.68;;;8.13;;
76155;SDS011;64906;51.290;7.348;2023-12-20T09:46:51;18.88;;;10.18;;
76155;SDS011;64906;51.290;7.348;2023-12-20T09:49:19;27.45;;;14.32;;
76155;SDS011;64906;51.290;7.348;2023-12-20T09:51:46;25.30;;;14.55;;
76155;SDS011;64906;51.290;7.348;2023-12-20T09:54:12;25.80;;;14.85;;
76155;SDS011;64906;51.290;7.348;2023-12-20T09:56:40;25.15;;;14.85;;
76155;SDS011;64906;51.290;7.348;2023-12-20T09:59:05;25.10;;;15.20;;
76155;SDS011;64906;51.290;7.348;2023-12-20T10:01:31;23.07;;;14.57;;
76155;SDS011;64906;51.290;7.348;2023-12-20T10:03:56;27.95;;;15.55;;
76155;SDS011;64906;51.290;7.348;2023-12-20T10:06:25;26.45;;;14.27;;
76155;SDS011;64906;51.290;7.348;2023-12-20T10:08:50;24.33;;;14.70;;
76155;SDS011;64906;51.290;7.348;2023-12-20T10:11:15;27.30;;;15.13;;
76155;SDS011;64906;51.290;7.348;2023-12-20T10:13:41;21.83;;;13.67;;
76155;SDS011;64906;51.290;7.348;2023-12-20T10:16:06;24.02;;;14.82;;
76155;SDS011;64906;51.290;7.348;2023-12-20T10:18:35;33.22;;;18.92;;
76155;SDS011;64906;51.290;7.348;2023-12-20T10:21:01;35.42;;;19.90;;
76155;SDS011;64906;51.290;7.348;2023-12-20T10:23:26;38.80;;;22.80;;
76155;SDS011;64906;51.290;7.348;2023-12-20T10:25:58;49.43;;;30.53;;
76155;SDS011;64906;51.290;7.348;2023-12-20T10:28:24;48.03;;;30.73;;
76155;SDS011;64906;51.290;7.348;2023-12-20T10:30:53;49.00;;;28.88;;
76155;SDS011;64906;51.290;7.348;2023-12-20T10:33:30;44.85;;;29.30;;
76155;SDS011;64906;51.290;7.348;2023-12-20T10:36:00;48.22;;;28.58;;
76155;SDS011;64906;51.290;7.348;2023-12-20T10:38:25;45.22;;;29.33;;
76155;SDS011;64906;51.290;7.348;2023-12-20T10:40:53;46.60;;;27.55;;
76155;SDS011;64906;51.290;7.348;2023-12-20T10:43:21;50.10;;;29.38;;
76155;SDS011;64906;51.290;7.348;2023-12-20T10:45:47;45.20;;;28.08;;
76155;SDS011;64906;51.290;7.348;2023-12-20T10:48:13;44.83;;;27.10;;
76155;SDS011;64906;51.290;7.348;2023-12-20T10:50:38;41.57;;;27.97;;
76155;SDS011;64906;51.290;7.348;2023-12-20T10:53:04;44.85;;;27.73;;
76155;SDS011;64906;51.290;7.348;2023-12-20T10:55:31;47.35;;;28.27;;
76155;SDS011;64906;51.290;7.348;2023-12-20T10:58:09;45.53;;;28.00;;
76155;SDS011;64906;51.290;7.348;2023-12-20T11:00:36;44.60;;;26.88;;
76155;SDS011;64906;51.290;7.348;2023-12-20T11:03:06;42.45;;;26.58;;
76155;SDS011;64906;51.290;7.348;2023-12-20T11:05:49;42.33;;;26.38;;
76155;SDS011;64906;51.290;7.348;2023-12-20T11:08:36;46.08;;;27.30;;
76155;SDS011;64906;51.290;7.348;2023-12-20T11:13:48;41.08;;;27.02;;
76155;SDS011;64906;51.290;7.348;2023-12-20T11:16:22;41.65;;;26.25;;
76155;SDS011;64906;51.290;7.348;2023-12-20T11:18:47;40.47;;;25.90;;
76155;SDS011;64906;51.290;7.348;2023-12-20T11:21:12;41.47;;;26.47;;
76155;SDS011;64906;51.290;7.348;2023-12-20T11:23:39;40.33;;;26.20;;
76155;SDS011;64906;51.290;7.348;2023-12-20T11:26:07;39.65;;;25.15;;
76155;SDS011;64906;51.290;7.348;2023-12-20T11:28:33;43.33;;;26.65;;
76155;SDS011;64906;51.290;7.348;2023-12-20T11:30:58;40.90;;;25.90;;
76155;SDS011;64906;51.290;7.348;2023-12-20T11:33:26;41.65;;;25.13;;
76155;SDS011;64906;51.290;7.348;2023-12-20T11:35:55;43.03;;;25.65;;
76155;SDS011;64906;51.290;7.348;2023-12-20T11:38:21;43.63;;;25.23;;
76155;SDS011;64906;51.290;7.348;2023-12-20T11:40:47;38.95;;;25.75;;
76155;SDS011;64906;51.290;7.348;2023-12-20T11:43:29;38.20;;;24.35;;
76155;SDS011;64906;51.290;7.348;2023-12-20T11:45:55;39.63;;;25.30;;
76155;SDS011;64906;51.290;7.348;2023-12-20T11:48:27;38.67;;;24.13;;
76155;SDS011;64906;51.290;7.348;2023-12-20T11:50:53;39.28;;;25.20;;
76155;SDS011;64906;51.290;7.348;2023-12-20T11:53:18;37.58;;;24.08;;
76155;SDS011;64906;51.290;7.348;2023-12-20T11:55:47;40.47;;;25.48;;
76155;SDS011;64906;51.290;7.348;2023-12-20T11:58:13;39.95;;;25.23;;
76155;SDS011;64906;51.290;7.348;2023-12-20T12:00:40;39.38;;;24.58;;
76155;SDS011;64906;51.290;7.348;2023-12-20T12:03:06;38.95;;;25.65;;
76155;SDS011;64906;51.290;7.348;2023-12-20T12:05:31;38.47;;;24.63;;
76155;SDS011;64906;51.290;7.348;2023-12-20T12:07:58;37.92;;;23.00;;
76155;SDS011;64906;51.290;7.348;2023-12-20T12:10:23;36.58;;;22.95;;
76155;SDS011;64906;51.290;7.348;2023-12-20T12:12:48;36.37;;;22.67;;
76155;SDS011;64906;51.290;7.348;2023-12-20T12:15:14;38.03;;;23.17;;
76155;SDS011;64906;51.290;7.348;2023-12-20T12:17:39;37.53;;;23.38;;
76155;SDS011;64906;51.290;7.348;2023-12-20T12:20:05;38.95;;;23.70;;
76155;SDS011;64906;51.290;7.348;2023-12-20T12:22:31;34.63;;;22.60;;
76155;SDS011;64906;51.290;7.348;2023-12-20T12:24:58;36.42;;;22.83;;
76155;SDS011;64906;51.290;7.348;2023-12-20T12:27:33;33.28;;;22.02;;
76155;SDS011;64906;51.290;7.348;2023-12-20T12:30:02;35.57;;;22.60;;
76155;SDS011;64906;51.290;7.348;2023-12-20T12:32:29;35.08;;;22.65;;
76155;SDS011;64906;51.290;7.348;2023-12-20T12:34:55;37.60;;;22.77;;
76155;SDS011;64906;51.290;7.348;2023-12-20T12:37:20;35.50;;;23.33;;
76155;SDS011;64906;51.290;7.348;2023-12-20T12:39:48;37.47;;;23.38;;
76155;SDS011;64906;51.290;7.348;2023-12-20T12:42:13;34.20;;;22.13;;
76155;SDS011;64906;51.290;7.348;2023-12-20T12:44:39;35.87;;;23.20;;
76155;SDS011;64906;51.290;7.348;2023-12-20T12:47:04;37.33;;;22.35;;
76155;SDS011;64906;51.290;7.348;2023-12-20T12:49:30;34.40;;;21.50;;
76155;SDS011;64906;51.290;7.348;2023-12-20T12:51:57;34.65;;;22.45;;
76155;SDS011;64906;51.290;7.348;2023-12-20T12:54:23;33.55;;;20.92;;
76155;SDS011;64906;51.290;7.348;2023-12-20T12:56:48;31.70;;;21.92;;
76155;SDS011;64906;51.290;7.348;2023-12-20T12:59:15;30.98;;;20.23;;
76155;SDS011;64906;51.290;7.348;2023-12-20T13:01:41;32.97;;;20.35;;
76155;SDS011;64906;51.290;7.348;2023-12-20T13:04:06;31.23;;;20.15;;
76155;SDS011;64906;51.290;7.348;2023-12-20T13:06:35;34.22;;;21.85;;
76155;SDS011;64906;51.290;7.348;2023-12-20T13:09:04;31.92;;;20.98;;
76155;SDS011;64906;51.290;7.348;2023-12-20T13:11:30;34.60;;;20.30;;
76155;SDS011;64906;51.290;7.348;2023-12-20T13:13:56;33.25;;;20.80;;
76155;SDS011;64906;51.290;7.348;2023-12-20T13:16:23;31.02;;;20.15;;
76155;SDS011;64906;51.290;7.348;2023-12-20T13:18:49;33.35;;;20.73;;
76155;SDS011;64906;51.290;7.348;2023-12-20T13:21:14;30.77;;;19.73;;
76155;SDS011;64906;51.290;7.348;2023-12-20T13:23:40;28.73;;;19.17;;
76155;SDS011;64906;51.290;7.348;2023-12-20T13:26:05;28.90;;;18.23;;
76155;SDS011;64906;51.290;7.348;2023-12-20T13:28:32;30.27;;;20.10;;
76155;SDS011;64906;51.290;7.348;2023-12-20T13:30:57;30.17;;;19.43;;
76155;SDS011;64906;51.290;7.348;2023-12-20T13:33:22;29.43;;;19.10;;
76155;SDS011;64906;51.290;7.348;2023-12-20T13:35:48;30.65;;;19.70;;
76155;SDS011;64906;51.290;7.348;2023-12-20T13:38:13;29.75;;;19.00;;
76155;SDS011;64906;51.290;7.348;2023-12-20T13:40:39;31.48;;;20.17;;
76155;SDS011;64906;51.290;7.348;2023-12-20T13:43:04;30.00;;;19.33;;
76155;SDS011;64906;51.290;7.348;2023-12-20T13:45:30;29.95;;;19.17;;
76155;SDS011;64906;51.290;7.348;2023-12-20T13:47:56;30.13;;;18.97;;
76155;SDS011;64906;51.290;7.348;2023-12-20T13:50:21;28.33;;;18.57;;
76155;SDS011;64906;51.290;7.348;2023-12-20T13:52:47;27.92;;;18.15;;
76155;SDS011;64906;51.290;7.348;2023-12-20T13:55:12;27.92;;;18.33;;
76155;SDS011;64906;51.290;7.348;2023-12-20T13:57:38;27.10;;;17.80;;
76155;SDS011;64906;51.290;7.348;2023-12-20T14:00:04;26.73;;;18.10;;
76155;SDS011;64906;51.290;7.348;2023-12-20T14:02:30;29.52;;;18.55;;
76155;SDS011;64906;51.290;7.348;2023-12-20T14:04:56;29.77;;;18.73;;
76155;SDS011;64906;51.290;7.348;2023-12-20T14:07:21;29.10;;;17.30;;
76155;SDS011;64906;51.290;7.348;2023-12-20T14:09:46;30.03;;;18.33;;
76155;SDS011;64906;51.290;7.348;2023-12-20T14:12:12;29.27;;;18.70;;
76155;SDS011;64906;51.290;7.348;2023-12-20T14:14:38;29.10;;;18.17;;
76155;SDS011;64906;51.290;7.348;2023-12-20T14:17:03;30.13;;;18.92;;
76155;SDS011;64906;51.290;7.348;2023-12-20T14:19:31;32.28;;;18.63;;
76155;SDS011;64906;51.290;7.348;2023-12-20T14:21:57;29.85;;;18.40;;
76155;SDS011;64906;51.290;7.348;2023-12-20T14:24:26;30.67;;;18.77;;
76155;SDS011;64906;51.290;7.348;2023-12-20T14:26:59;28.58;;;18.05;;
76155;SDS011;64906;51.290;7.348;2023-12-20T14:29:25;27.52;;;17.77;;
76155;SDS011;64906;51.290;7.348;2023-12-20T14:31:50;29.40;;;17.80;;
76155;SDS011;64906;51.290;7.348;2023-12-20T14:34:15;29.07;;;18.37;;